createdAt,value
2022-08-28T00:01:57.188Z,16.50
2022-08-28T00:04:23.764Z,16.50
2022-08-28T00:06:50.393Z,16.50
2022-08-28T00:09:16.996Z,16.50
2022-08-28T00:11:43.679Z,16.60
2022-08-28T00:14:10.243Z,16.50
2022-08-28T00:16:36.946Z,16.50
2022-08-28T00:19:05.974Z,16.50
2022-08-28T00:21:33.320Z,16.50
2022-08-28T00:23:59.876Z,16.50
2022-08-28T00:26:45.321Z,16.50
2022-08-28T00:29:12.010Z,16.40
2022-08-28T00:31:39.547Z,16.40
2022-08-28T00:34:06.188Z,16.30
2022-08-28T00:36:33.321Z,16.30
2022-08-28T00:39:02.871Z,16.30
2022-08-28T00:41:30.209Z,16.20
2022-08-28T00:43:56.901Z,16.30
2022-08-28T00:46:23.535Z,16.30
2022-08-28T00:48:50.140Z,16.20
2022-08-28T00:51:35.360Z,16.30
2022-08-28T00:54:06.872Z,16.30
2022-08-28T00:56:34.199Z,16.20
2022-08-28T00:59:00.741Z,16.30
2022-08-28T01:01:27.334Z,16.20
2022-08-28T01:03:53.974Z,16.10
2022-08-28T01:06:20.787Z,16.10
2022-08-28T01:08:50.340Z,16.10
2022-08-28T01:11:17.319Z,16.10
2022-08-28T01:13:46.717Z,16.10
2022-08-28T01:16:13.482Z,16.10
2022-08-28T01:18:40.114Z,16.00
2022-08-28T01:21:06.686Z,16.00
2022-08-28T01:23:34.481Z,16.00
2022-08-28T01:26:01.082Z,16.00
2022-08-28T01:28:28.078Z,16.00
2022-08-28T01:30:55.138Z,15.90
2022-08-28T01:33:28.006Z,15.90
2022-08-28T01:35:54.867Z,15.80
2022-08-28T01:38:22.023Z,15.80
2022-08-28T01:40:53.673Z,15.80
2022-08-28T01:43:20.334Z,15.80
2022-08-28T01:45:46.895Z,15.80
2022-08-28T01:48:13.540Z,15.80
2022-08-28T01:50:40.393Z,15.80
2022-08-28T01:53:06.993Z,15.80
2022-08-28T01:55:39.355Z,15.80
2022-08-28T01:58:06.114Z,15.80
2022-08-28T02:00:32.758Z,15.80
2022-08-28T02:03:00.733Z,15.80
2022-08-28T02:05:28.203Z,15.80
2022-08-28T02:07:55.858Z,15.70
2022-08-28T02:10:24.754Z,15.70
2022-08-28T02:12:51.460Z,15.70
2022-08-28T02:15:18.057Z,15.60
2022-08-28T02:17:45.356Z,15.60
2022-08-28T02:20:11.912Z,15.60
2022-08-28T02:22:38.463Z,15.60
2022-08-28T02:25:05.078Z,15.60
2022-08-28T02:27:32.114Z,15.60
2022-08-28T02:30:01.657Z,15.60
2022-08-28T02:32:28.234Z,15.60
2022-08-28T02:34:54.791Z,15.60
2022-08-28T02:37:21.464Z,15.70
2022-08-28T02:39:48.197Z,15.70
2022-08-28T02:42:15.700Z,15.70
2022-08-28T02:44:42.858Z,15.70
2022-08-28T02:47:09.400Z,15.70
2022-08-28T02:49:36.299Z,15.70
2022-08-28T02:52:03.044Z,15.60
2022-08-28T02:54:30.973Z,15.60
2022-08-28T02:56:58.599Z,15.60
2022-08-28T02:59:25.130Z,15.60
2022-08-28T03:01:52.065Z,15.60
2022-08-28T03:04:18.761Z,15.50
2022-08-28T03:06:45.338Z,15.40
2022-08-28T03:09:11.964Z,15.40
2022-08-28T03:11:38.531Z,15.30
2022-08-28T03:14:05.078Z,15.30
2022-08-28T03:16:32.375Z,15.20
2022-08-28T03:18:59.277Z,15.20
2022-08-28T03:21:25.928Z,15.10
2022-08-28T03:23:52.500Z,15.00
2022-08-28T03:26:19.093Z,15.00
2022-08-28T03:28:45.632Z,14.90
2022-08-28T03:31:13.802Z,14.90
2022-08-28T03:33:42.994Z,14.90
2022-08-28T03:36:09.617Z,14.90
2022-08-28T03:38:36.167Z,15.00
2022-08-28T03:41:02.760Z,14.90
2022-08-28T03:43:29.296Z,14.90
2022-08-28T03:45:58.095Z,14.80
2022-08-28T03:48:24.798Z,14.90
2022-08-28T03:50:53.133Z,14.80
2022-08-28T03:53:19.791Z,14.80
2022-08-28T03:55:46.431Z,14.70
2022-08-28T03:58:18.834Z,14.70
2022-08-28T04:00:45.668Z,14.70
2022-08-28T04:03:12.500Z,14.70
2022-08-28T04:05:39.079Z,14.70
2022-08-28T04:08:06.077Z,14.60
2022-08-28T04:10:33.064Z,14.60
2022-08-28T04:13:00.091Z,14.60
2022-08-28T04:15:26.650Z,14.50
2022-08-28T04:17:53.604Z,14.50
2022-08-28T04:20:20.999Z,14.60
2022-08-28T04:22:47.596Z,14.50
2022-08-28T04:25:14.581Z,14.50
2022-08-28T04:27:41.143Z,14.50
2022-08-28T04:30:07.712Z,14.50
2022-08-28T04:32:36.618Z,14.50
2022-08-28T04:35:03.371Z,14.50
2022-08-28T04:37:30.666Z,14.50
2022-08-28T04:39:57.455Z,14.50
2022-08-28T04:42:24.573Z,14.50
2022-08-28T04:44:51.247Z,14.50
2022-08-28T04:47:17.925Z,14.40
2022-08-28T04:49:44.558Z,14.40
2022-08-28T04:52:11.522Z,14.40
2022-08-28T04:54:38.575Z,14.40
2022-08-28T04:57:06.413Z,14.40
2022-08-28T04:59:33.288Z,14.30
2022-08-28T05:02:00.799Z,14.30
2022-08-28T05:04:27.851Z,14.30
2022-08-28T05:06:54.883Z,14.20
2022-08-28T05:09:24.562Z,14.30
2022-08-28T05:11:53.406Z,14.30
2022-08-28T05:14:21.686Z,14.30
2022-08-28T05:16:48.333Z,14.30
2022-08-28T05:19:15.029Z,14.30
2022-08-28T05:21:42.626Z,14.30
2022-08-28T05:24:09.469Z,14.30
2022-08-28T05:26:36.124Z,14.30
2022-08-28T05:29:07.001Z,14.30
2022-08-28T05:31:33.805Z,14.30
2022-08-28T05:34:00.517Z,14.40
2022-08-28T05:36:32.369Z,14.40
2022-08-28T05:38:59.932Z,14.40
2022-08-28T05:41:26.619Z,14.50
2022-08-28T05:43:54.015Z,14.40
2022-08-28T05:46:20.802Z,14.40
2022-08-28T05:48:49.377Z,14.40
2022-08-28T05:51:15.928Z,14.40
2022-08-28T05:53:42.504Z,14.50
2022-08-28T05:56:09.062Z,14.50
2022-08-28T05:58:35.643Z,14.60
2022-08-28T06:01:02.255Z,14.60
2022-08-28T06:03:28.794Z,14.70
2022-08-28T06:05:55.328Z,14.70
2022-08-28T06:08:23.198Z,14.70
2022-08-28T06:10:51.043Z,14.70
2022-08-28T06:13:17.730Z,14.70
2022-08-28T06:15:45.792Z,14.80
2022-08-28T06:18:12.568Z,14.80
2022-08-28T06:20:41.394Z,14.80
2022-08-28T06:23:11.006Z,14.80
2022-08-28T06:25:37.995Z,14.80
2022-08-28T06:28:04.565Z,14.80
2022-08-28T06:30:31.158Z,14.80
2022-08-28T06:32:57.755Z,14.90
2022-08-28T06:35:24.364Z,14.90
2022-08-28T06:37:50.962Z,14.90
2022-08-28T06:40:17.653Z,14.90
2022-08-28T06:42:44.263Z,15.00
2022-08-28T06:45:10.841Z,15.00
2022-08-28T06:47:37.389Z,15.00
2022-08-28T06:50:04.107Z,15.00
2022-08-28T06:52:30.797Z,15.00
2022-08-28T06:54:57.391Z,15.00
2022-08-28T06:57:25.714Z,15.00
2022-08-28T06:59:52.315Z,15.10
2022-08-28T07:02:18.963Z,15.20
2022-08-28T07:04:45.740Z,15.20
2022-08-28T07:07:15.698Z,15.30
2022-08-28T07:09:58.686Z,15.40
2022-08-28T07:12:25.265Z,15.40
2022-08-28T07:14:51.846Z,15.50
2022-08-28T07:17:18.433Z,15.50
2022-08-28T07:19:45.033Z,15.50
2022-08-28T07:22:12.000Z,15.50
2022-08-28T07:24:38.617Z,15.50
2022-08-28T07:27:05.499Z,15.40
2022-08-28T07:29:32.605Z,15.50
2022-08-28T07:31:59.497Z,15.50
2022-08-28T07:34:27.298Z,15.50
2022-08-28T07:36:54.050Z,15.50
2022-08-28T07:39:20.595Z,15.50
2022-08-28T07:41:47.207Z,15.60
2022-08-28T07:44:32.618Z,15.60
2022-08-28T07:46:59.248Z,15.60
2022-08-28T07:49:25.870Z,15.60
2022-08-28T07:51:54.005Z,15.60
2022-08-28T07:54:21.152Z,15.60
2022-08-28T07:56:47.689Z,15.60
2022-08-28T07:59:16.977Z,15.70
2022-08-28T08:01:44.045Z,15.60
2022-08-28T08:04:12.645Z,15.60
2022-08-28T08:06:39.341Z,15.60
2022-08-28T08:09:05.946Z,15.70
2022-08-28T08:11:32.805Z,15.80
2022-08-28T08:14:03.832Z,15.90
2022-08-28T08:16:33.396Z,16.00
2022-08-28T08:19:00.352Z,16.20
2022-08-28T08:21:30.099Z,16.30
2022-08-28T08:23:57.239Z,16.40
2022-08-28T08:26:23.867Z,16.40
2022-08-28T08:28:50.690Z,16.50
2022-08-28T08:31:17.352Z,16.60
2022-08-28T08:33:43.965Z,16.60
2022-08-28T08:36:10.543Z,16.70
2022-08-28T08:38:37.190Z,16.70
2022-08-28T08:41:03.747Z,16.70
2022-08-28T08:43:30.299Z,16.70
2022-08-28T08:45:56.955Z,16.70
2022-08-28T08:48:23.562Z,16.60
2022-08-28T08:50:50.126Z,16.50
2022-08-28T08:53:16.663Z,16.50
2022-08-28T08:55:43.302Z,16.60
2022-08-28T08:58:09.940Z,16.80
2022-08-28T09:00:36.565Z,17.00
2022-08-28T09:03:03.176Z,17.10
2022-08-28T09:05:29.795Z,17.20
2022-08-28T09:07:59.801Z,17.40
2022-08-28T09:10:26.418Z,17.50
2022-08-28T09:12:53.038Z,17.50
2022-08-28T09:15:19.647Z,17.60
2022-08-28T09:17:48.010Z,17.50
2022-08-28T09:20:14.893Z,17.50
2022-08-28T09:22:41.432Z,17.50
2022-08-28T09:25:08.628Z,17.60
2022-08-28T09:27:36.034Z,17.60
2022-08-28T09:30:08.070Z,17.80
2022-08-28T09:32:35.136Z,17.80
2022-08-28T09:35:01.732Z,17.80
2022-08-28T09:37:29.096Z,17.80
2022-08-28T09:39:55.757Z,17.70
2022-08-28T09:42:41.159Z,17.80
2022-08-28T09:45:09.723Z,17.90
2022-08-28T09:47:36.458Z,18.10
2022-08-28T09:50:13.162Z,18.30
2022-08-28T09:52:39.782Z,18.60
2022-08-28T09:55:06.328Z,18.70
2022-08-28T09:57:32.873Z,18.80
2022-08-28T09:59:59.512Z,18.80
2022-08-28T10:02:26.073Z,18.90
2022-08-28T10:04:52.705Z,18.90
2022-08-28T10:07:19.330Z,19.00
2022-08-28T10:09:47.803Z,19.20
2022-08-28T10:12:15.063Z,19.40
2022-08-28T10:14:41.631Z,19.50
2022-08-28T10:17:08.180Z,19.60
2022-08-28T10:19:34.764Z,19.70
2022-08-28T10:22:01.718Z,19.40
2022-08-28T10:24:31.727Z,19.40
2022-08-28T10:26:58.320Z,19.50
2022-08-28T10:29:24.945Z,19.60
2022-08-28T10:31:51.529Z,19.60
2022-08-28T10:34:18.118Z,19.60
2022-08-28T10:36:44.720Z,19.60
2022-08-28T10:39:11.259Z,19.60
2022-08-28T10:41:37.799Z,19.60
2022-08-28T10:44:04.337Z,19.60
2022-08-28T10:46:30.957Z,19.60
2022-08-28T10:48:59.996Z,19.40
2022-08-28T10:51:34.732Z,19.10
2022-08-28T10:54:03.206Z,19.10
2022-08-28T10:56:30.182Z,19.10
2022-08-28T10:58:56.766Z,19.20
2022-08-28T11:01:23.375Z,19.20
2022-08-28T11:03:49.980Z,19.20
2022-08-28T11:06:16.548Z,19.30
2022-08-28T11:08:45.203Z,19.40
2022-08-28T11:11:11.831Z,19.50
2022-08-28T11:13:38.367Z,19.60
2022-08-28T11:16:04.951Z,19.50
2022-08-28T11:18:31.550Z,19.60
2022-08-28T11:20:58.150Z,19.70
2022-08-28T11:23:24.796Z,19.80
2022-08-28T11:25:51.773Z,19.90
2022-08-28T11:28:18.390Z,20.10
2022-08-28T11:30:46.883Z,20.30
2022-08-28T11:33:13.612Z,20.50
2022-08-28T11:35:40.304Z,20.80
2022-08-28T11:38:06.852Z,20.90
2022-08-28T11:40:33.456Z,21.00
2022-08-28T11:43:00.080Z,20.90
2022-08-28T11:45:26.667Z,21.00
2022-08-28T11:47:56.263Z,21.00
2022-08-28T11:50:22.886Z,21.30
2022-08-28T11:52:49.449Z,21.50
2022-08-28T11:55:16.048Z,21.60
2022-08-28T11:57:42.642Z,21.60
2022-08-28T12:00:10.183Z,21.50
2022-08-28T12:02:36.903Z,21.40
2022-08-28T12:05:03.531Z,21.50
2022-08-28T12:07:30.113Z,21.70
2022-08-28T12:09:56.703Z,21.80
2022-08-28T12:12:23.296Z,21.80
2022-08-28T12:14:50.263Z,21.90
2022-08-28T12:17:16.819Z,21.90
2022-08-28T12:19:55.461Z,21.80
2022-08-28T12:22:23.180Z,21.90
2022-08-28T12:24:50.006Z,22.20
2022-08-28T12:27:16.597Z,22.20
2022-08-28T12:29:43.148Z,22.20
2022-08-28T12:32:12.856Z,22.20
2022-08-28T12:34:39.461Z,22.30
2022-08-28T12:37:06.019Z,22.20
2022-08-28T12:39:32.597Z,22.40
2022-08-28T12:41:59.165Z,22.40
2022-08-28T12:44:25.885Z,22.60
2022-08-28T12:46:52.461Z,22.80
2022-08-28T12:49:19.240Z,22.90
2022-08-28T12:51:46.994Z,23.10
2022-08-28T12:54:13.518Z,23.30
2022-08-28T12:56:40.091Z,23.40
2022-08-28T12:59:06.646Z,23.50
2022-08-28T13:01:33.440Z,23.40
2022-08-28T13:04:00.097Z,23.20
2022-08-28T13:06:27.002Z,23.30
2022-08-28T13:08:55.570Z,23.40
2022-08-28T13:11:22.155Z,23.30
2022-08-28T13:13:48.760Z,22.90
2022-08-28T13:16:15.428Z,22.80
2022-08-28T13:18:42.059Z,22.90
2022-08-28T13:21:08.670Z,22.90
2022-08-28T13:23:35.242Z,23.10
2022-08-28T13:26:01.783Z,23.20
2022-08-28T13:28:28.359Z,23.40
2022-08-28T13:30:54.969Z,23.50
2022-08-28T13:33:21.721Z,23.50
2022-08-28T13:35:48.628Z,23.60
2022-08-28T13:38:16.474Z,23.70
2022-08-28T13:40:59.640Z,23.80
2022-08-28T13:43:26.554Z,23.90
2022-08-28T13:45:53.133Z,23.90
2022-08-28T13:48:20.064Z,23.50
2022-08-28T13:50:47.378Z,23.50
2022-08-28T13:53:14.321Z,23.50
2022-08-28T13:55:40.999Z,23.40
2022-08-28T13:58:07.642Z,23.40
2022-08-28T14:00:34.184Z,23.40
2022-08-28T14:03:19.745Z,23.40
2022-08-28T14:05:46.336Z,23.40
2022-08-28T14:08:13.138Z,23.40
2022-08-28T14:10:39.683Z,23.50
2022-08-28T14:13:06.405Z,23.40
2022-08-28T14:15:32.986Z,23.40
2022-08-28T14:17:59.631Z,23.50
2022-08-28T14:20:26.548Z,23.50
2022-08-28T14:22:53.094Z,23.50
2022-08-28T14:25:19.691Z,23.50
2022-08-28T14:27:46.330Z,23.40
2022-08-28T14:30:12.893Z,23.40
2022-08-28T14:32:40.110Z,23.30
2022-08-28T14:35:06.686Z,23.30
2022-08-28T14:37:33.335Z,23.40
2022-08-28T14:39:59.974Z,23.40
2022-08-28T14:42:26.911Z,23.50
2022-08-28T14:44:53.463Z,23.60
2022-08-28T14:47:20.073Z,23.60
2022-08-28T14:49:46.715Z,23.50
2022-08-28T14:52:13.476Z,23.50
2022-08-28T14:54:40.652Z,23.50
2022-08-28T14:57:07.301Z,23.60
2022-08-28T14:59:34.071Z,23.60
2022-08-28T15:02:01.723Z,23.60
2022-08-28T15:04:28.984Z,23.60
2022-08-28T15:06:55.620Z,23.60
2022-08-28T15:09:22.198Z,23.60
2022-08-28T15:11:48.760Z,23.70
2022-08-28T15:14:15.364Z,23.80
2022-08-28T15:16:42.029Z,23.90
2022-08-28T15:19:12.252Z,23.90
2022-08-28T15:21:38.811Z,23.80
2022-08-28T15:24:05.392Z,23.80
2022-08-28T15:26:32.000Z,23.90
2022-08-28T15:29:02.199Z,23.90
2022-08-28T15:31:29.087Z,23.90
2022-08-28T15:33:55.967Z,23.80
2022-08-28T15:36:23.445Z,23.70
2022-08-28T15:39:08.878Z,23.60
2022-08-28T15:41:36.959Z,23.60
2022-08-28T15:44:03.521Z,23.70
2022-08-28T15:46:31.395Z,23.60
2022-08-28T15:48:58.037Z,23.50
2022-08-28T15:51:26.013Z,23.60
2022-08-28T15:53:52.839Z,23.60
2022-08-28T15:56:20.022Z,23.70
2022-08-28T15:58:46.642Z,23.60
2022-08-28T16:01:13.700Z,23.50
2022-08-28T16:03:40.356Z,23.50
2022-08-28T16:06:06.917Z,23.50
2022-08-28T16:08:33.693Z,23.50
2022-08-28T16:11:00.245Z,23.40
2022-08-28T16:13:26.840Z,23.40
2022-08-28T16:15:53.426Z,23.40
2022-08-28T16:18:20.045Z,23.40
2022-08-28T16:20:46.661Z,23.40
2022-08-28T16:23:13.230Z,23.40
2022-08-28T16:25:39.812Z,23.50
2022-08-28T16:28:06.481Z,23.50
2022-08-28T16:30:33.271Z,23.60
2022-08-28T16:33:00.262Z,23.70
2022-08-28T16:35:27.499Z,23.70
2022-08-28T16:37:56.072Z,23.80
2022-08-28T16:40:23.394Z,23.80
2022-08-28T16:42:51.573Z,23.80
2022-08-28T16:45:18.680Z,23.60
2022-08-28T16:47:45.243Z,23.50
2022-08-28T16:50:11.951Z,23.50
2022-08-28T16:52:38.534Z,23.60
2022-08-28T16:55:05.488Z,23.50
2022-08-28T16:57:32.077Z,23.50
2022-08-28T16:59:58.618Z,23.60
2022-08-28T17:02:26.346Z,23.70
2022-08-28T17:04:53.201Z,23.70
2022-08-28T17:07:19.829Z,23.80
2022-08-28T17:09:46.896Z,23.80
2022-08-28T17:12:13.444Z,23.70
2022-08-28T17:14:41.810Z,23.50
2022-08-28T17:17:08.408Z,23.50
2022-08-28T17:19:35.001Z,23.50
2022-08-28T17:22:20.775Z,23.50
2022-08-28T17:24:48.782Z,23.40
2022-08-28T17:27:22.310Z,23.10
2022-08-28T17:29:49.232Z,23.00
2022-08-28T17:32:15.844Z,22.80
2022-08-28T17:34:42.409Z,22.70
2022-08-28T17:37:10.838Z,22.50
2022-08-28T17:39:37.373Z,22.20
2022-08-28T17:42:04.001Z,21.80
2022-08-28T17:44:30.632Z,21.50
2022-08-28T17:46:57.234Z,21.20
2022-08-28T17:49:23.957Z,21.00
2022-08-28T17:51:51.020Z,20.70
2022-08-28T17:54:18.095Z,20.50
2022-08-28T17:56:45.073Z,20.30
2022-08-28T17:59:11.685Z,20.20
2022-08-28T18:01:38.457Z,20.10
2022-08-28T18:04:05.339Z,20.00
2022-08-28T18:06:32.480Z,19.90
2022-08-28T18:08:59.055Z,19.90
2022-08-28T18:11:25.707Z,19.80
2022-08-28T18:13:52.290Z,19.70
2022-08-28T18:16:18.914Z,19.60
2022-08-28T18:18:45.590Z,19.50
2022-08-28T18:21:12.202Z,19.40
2022-08-28T18:23:39.719Z,19.30
2022-08-28T18:26:06.611Z,19.10
2022-08-28T18:28:33.437Z,19.00
2022-08-28T18:31:00.670Z,18.90
2022-08-28T18:33:27.328Z,18.80
2022-08-28T18:35:54.135Z,18.70
2022-08-28T18:38:21.433Z,18.60
2022-08-28T18:40:48.026Z,18.40
2022-08-28T18:43:14.597Z,18.30
2022-08-28T18:45:41.186Z,18.10
2022-08-28T18:48:11.018Z,18.10
2022-08-28T18:50:37.905Z,18.00
2022-08-28T18:53:04.543Z,17.80
2022-08-28T18:55:32.072Z,17.80
2022-08-28T18:57:58.797Z,17.70
2022-08-28T19:00:25.835Z,17.60
2022-08-28T19:02:52.733Z,17.50
2022-08-28T19:05:20.739Z,17.40
2022-08-28T19:07:47.300Z,17.30
2022-08-28T19:10:32.184Z,17.20
2022-08-28T19:13:00.878Z,17.10
2022-08-28T19:15:28.196Z,17.00
2022-08-28T19:17:54.776Z,17.00
2022-08-28T19:20:21.439Z,16.90
2022-08-28T19:22:48.940Z,16.90
2022-08-28T19:25:22.409Z,16.80
2022-08-28T19:27:59.179Z,16.70
2022-08-28T19:30:26.247Z,16.60
2022-08-28T19:32:53.207Z,16.60
2022-08-28T19:35:19.793Z,16.50
2022-08-28T19:37:46.408Z,16.50
2022-08-28T19:40:13.024Z,16.50
2022-08-28T19:42:39.613Z,16.40
2022-08-28T19:45:06.191Z,16.40
2022-08-28T19:47:35.755Z,16.30
2022-08-28T19:50:02.728Z,16.20
2022-08-28T19:52:29.834Z,16.20
2022-08-28T19:54:56.439Z,16.10
2022-08-28T19:57:23.061Z,16.00
2022-08-28T19:59:49.640Z,15.90
2022-08-28T20:02:16.235Z,15.80
2022-08-28T20:04:42.905Z,15.80
2022-08-28T20:07:09.457Z,15.70
2022-08-28T20:09:36.039Z,15.60
2022-08-28T20:12:03.620Z,15.60
2022-08-28T20:14:30.199Z,15.50
2022-08-28T20:16:56.771Z,15.50
2022-08-28T20:19:23.340Z,15.50
2022-08-28T20:21:50.013Z,15.50
2022-08-28T20:24:17.561Z,15.50
2022-08-28T20:26:44.489Z,15.40
2022-08-28T20:29:11.141Z,15.40
2022-08-28T20:31:37.692Z,15.30
2022-08-28T20:34:04.837Z,15.40
2022-08-28T20:36:31.424Z,15.40
2022-08-28T20:38:58.211Z,15.30
2022-08-28T20:41:24.751Z,15.30
2022-08-28T20:43:51.309Z,15.30
2022-08-28T20:46:17.946Z,15.30
2022-08-28T20:48:44.587Z,15.30
2022-08-28T20:51:11.121Z,15.20
2022-08-28T20:53:38.111Z,15.10
2022-08-28T20:56:08.001Z,15.10
2022-08-28T20:58:34.553Z,15.00
2022-08-28T21:01:01.197Z,14.90
2022-08-28T21:03:27.789Z,14.80
2022-08-28T21:05:55.206Z,14.70
2022-08-28T21:08:21.820Z,14.70
2022-08-28T21:10:48.353Z,14.70
2022-08-28T21:13:14.980Z,14.60
2022-08-28T21:15:41.579Z,14.50
2022-08-28T21:18:09.767Z,14.50
2022-08-28T21:20:38.276Z,14.40
2022-08-28T21:23:05.214Z,14.40
2022-08-28T21:25:31.781Z,14.30
2022-08-28T21:27:58.329Z,14.30
2022-08-28T21:30:30.688Z,14.30
2022-08-28T21:32:57.333Z,14.30
2022-08-28T21:35:23.961Z,14.20
2022-08-28T21:37:51.125Z,14.20
2022-08-28T21:40:20.048Z,14.20
2022-08-28T21:42:46.648Z,14.10
2022-08-28T21:45:13.196Z,14.00
2022-08-28T21:47:39.826Z,14.00
2022-08-28T21:50:06.430Z,13.90
2022-08-28T21:52:33.022Z,13.90
2022-08-28T21:54:59.641Z,13.90
2022-08-28T21:57:26.335Z,13.90
2022-08-28T21:59:52.927Z,13.80
2022-08-28T22:02:19.580Z,13.80
2022-08-28T22:04:46.440Z,13.80
2022-08-28T22:07:13.970Z,13.70
2022-08-28T22:09:40.528Z,13.70
2022-08-28T22:12:08.941Z,13.70
2022-08-28T22:14:35.559Z,13.60
2022-08-28T22:17:02.121Z,13.60
2022-08-28T22:19:28.724Z,13.60
2022-08-28T22:22:13.980Z,13.60
2022-08-28T22:24:40.601Z,13.60
2022-08-28T22:27:07.322Z,13.50
2022-08-28T22:29:36.537Z,13.50
2022-08-28T22:32:03.168Z,13.50
2022-08-28T22:34:29.750Z,13.40
2022-08-28T22:36:56.398Z,13.30
2022-08-28T22:39:22.958Z,13.30
2022-08-28T22:41:49.527Z,13.30
2022-08-28T22:44:16.124Z,13.30
2022-08-28T22:46:42.710Z,13.30
2022-08-28T22:49:09.367Z,13.30
2022-08-28T22:51:35.949Z,13.30
2022-08-28T22:54:02.744Z,13.20
2022-08-28T22:56:29.262Z,13.20
2022-08-28T22:58:55.910Z,13.10
2022-08-28T23:01:22.724Z,13.10
2022-08-28T23:03:49.402Z,13.10
2022-08-28T23:06:16.025Z,13.10
2022-08-28T23:08:42.618Z,13.00
2022-08-28T23:11:09.192Z,13.00
2022-08-28T23:13:35.819Z,13.00
2022-08-28T23:16:02.494Z,13.00
2022-08-28T23:18:29.058Z,13.00
2022-08-28T23:20:55.595Z,13.00
2022-08-28T23:23:22.950Z,13.00
2022-08-28T23:25:50.430Z,13.00
2022-08-28T23:28:17.475Z,12.90
2022-08-28T23:30:49.742Z,12.90
2022-08-28T23:33:23.571Z,12.90
2022-08-28T23:35:50.828Z,12.90
2022-08-28T23:38:17.456Z,12.90
2022-08-28T23:40:44.167Z,12.90
2022-08-28T23:43:11.151Z,12.90
2022-08-28T23:45:37.758Z,12.90
2022-08-28T23:48:04.385Z,12.90
2022-08-28T23:50:31.973Z,12.80
2022-08-28T23:52:58.577Z,12.80
2022-08-28T23:55:27.055Z,12.70
2022-08-28T23:57:54.398Z,12.70
